Terminal Aerodrome Forecast
Issued by NWS

Current Version | Previous Version | Text Only | Print | Product List | Glossary Off
Versions: 1 2 3 4 5 6 7 8 9 10 11 12 13 14 15 16 17 18 19 20 21 22 23 24 25 26 27 28 29 30 31 32 33 34 35 36 37 38 39 40 41 42 43

000
FTUS41 KRNK 171449 AAA
TAFLWB
TAF AMD
KLWB 171449Z 1715/1812 00000KT 6SM -SHRA BR SCT012 OVC035
      TEMPO 1715/1717 2SM SHRA BR OVC012
     FM171700 21005KT 5SM -SHRA BR OVC009
     FM171900 21007KT P6SM -SHRA OVC030
     FM180100 25007KT 5SM -SHRA BR OVC025
     FM180400 27008KT P6SM OVC015=

USA.gov is the U.S. government's official web portal to all federal, state and local government web resources and services.